Time;durP1;ratioP1;P1;durP2;ratioP2;P2;SDS_P1;SDS_P2;PMS_P1;PMS_P2;Temp;Humidity;BMP_temperature;BMP_pressure;BME280_temperature;BME280_humidity;BME280_pressure;Samples;Min_cycle;Max_cycle;Signal;HPM_P1;HPM_P2
2022/07/26 00:00:27;;;;;;;9.43;7.63;;;;;;;;;;5076762;28;20319;-79
2022/07/26 00:02:53;;;;;;;9.93;7.27;;;18.90;99.90;;;;;;5078431;28;20648;-78
2022/07/26 00:05:19;;;;;;;8.63;7.37;;;18.90;99.90;;;;;;5078142;28;20200;-79
2022/07/26 00:07:45;;;;;;;12.63;7.70;;;18.90;99.90;;;;;;5078531;28;20259;-79
2022/07/26 00:10:12;;;;;;;9.77;7.90;;;18.80;99.90;;;;;;5078761;28;20171;-79
2022/07/26 00:12:37;;;;;;;9.40;7.03;;;18.70;99.90;;;;;;5077378;28;20183;-79
2022/07/26 00:15:05;;;;;;;12.67;8.33;;;18.70;99.90;;;;;;5078146;28;20199;-79
2022/07/26 00:17:31;;;;;;;10.90;8.10;;;18.80;99.90;;;;;;5078003;28;20182;-79
2022/07/26 00:19:57;;;;;;;9.47;7.97;;;18.80;99.90;;;;;;5078472;28;20258;-79
2022/07/26 00:22:34;;;;;;;12.40;9.00;;;18.70;99.90;;;;;;5078322;28;20174;-79
2022/07/26 00:25:05;;;;;;;15.97;7.57;;;18.80;99.90;;;;;;5078237;28;20206;-79
2022/07/26 00:27:31;;;;;;;8.70;7.80;;;18.80;99.90;;;;;;5077946;28;20268;-79
2022/07/26 00:29:57;;;;;;;9.93;7.07;;;18.70;99.90;;;;;;5078024;28;20182;-79
2022/07/26 00:32:22;;;;;;;9.00;7.40;;;18.70;99.90;;;;;;5078167;28;20636;-79
2022/07/26 00:34:50;;;;;;;8.93;6.47;;;18.70;99.90;;;;;;5076162;28;20277;-79
2022/07/26 00:37:16;;;;;;;7.80;6.43;;;18.60;99.90;;;;;;5077719;28;20202;-79
2022/07/26 00:39:42;;;;;;;7.57;6.23;;;18.60;99.90;;;;;;5077892;28;20599;-79
2022/07/26 00:42:08;;;;;;;9.13;6.43;;;18.70;99.90;;;;;;5076542;28;20184;-79
2022/07/26 00:44:41;;;;;;;6.93;5.40;;;18.50;99.90;;;;;;5078662;28;20177;-79
2022/07/26 00:47:07;;;;;;;6.17;5.43;;;18.50;99.90;;;;;;5076850;28;20240;-80
2022/07/26 00:49:33;;;;;;;8.47;7.30;;;;;;;;;;5078502;28;20668;-79
2022/07/26 00:51:59;;;;;;;11.53;9.23;;;18.40;99.90;;;;;;5077140;28;20169;-79
2022/07/26 00:54:25;;;;;;;11.07;9.97;;;18.40;99.90;;;;;;5076887;28;20216;-79
2022/07/26 00:56:52;;;;;;;15.37;10.13;;;18.40;99.90;;;;;;5078319;28;20574;-80
2022/07/26 00:59:18;;;;;;;11.67;9.30;;;18.40;99.90;;;;;;5077178;28;20176;-80
2022/07/26 01:01:44;;;;;;;10.37;8.20;;;18.40;99.90;;;;;;5078227;28;20209;-80
2022/07/26 01:04:09;;;;;;;9.07;6.80;;;18.50;99.90;;;;;;5077268;28;20191;-79
2022/07/26 01:06:35;;;;;;;6.83;6.10;;;18.30;99.90;;;;;;5078440;28;20204;-80
2022/07/26 01:09:03;;;;;;;9.63;5.83;;;;;;;;;;5077165;28;20205;-80
2022/07/26 01:11:29;;;;;;;7.80;6.17;;;18.30;99.90;;;;;;5078651;28;20169;-80
2022/07/26 01:13:55;;;;;;;6.70;6.03;;;18.40;99.90;;;;;;5078342;28;20173;-80
2022/07/26 01:16:21;;;;;;;6.67;5.77;;;18.40;99.90;;;;;;5078130;28;20197;-80
2022/07/26 01:18:47;;;;;;;6.30;5.50;;;18.40;99.90;;;;;;5078934;28;20181;-80
2022/07/26 01:21:12;;;;;;;6.13;5.53;;;18.30;99.90;;;;;;5078773;28;20209;-80
2022/07/26 01:23:38;;;;;;;8.27;6.63;;;18.30;99.90;;;;;;5077607;28;20639;-80
2022/07/26 01:26:05;;;;;;;7.47;5.60;;;18.30;99.90;;;;;;5078947;28;20198;-80
2022/07/26 01:28:38;;;;;;;9.70;5.77;;;18.30;99.90;;;;;;5080138;28;20198;-80
2022/07/26 01:31:05;;;;;;;8.43;6.07;;;18.20;99.90;;;;;;5077755;28;20249;-80
2022/07/26 01:33:32;;;;;;;9.80;6.23;;;18.20;99.90;;;;;;5078895;28;20300;-80
2022/07/26 01:35:58;;;;;;;8.17;6.33;;;18.20;99.90;;;;;;5078418;28;20204;-80
2022/07/26 01:38:25;;;;;;;7.00;6.03;;;18.10;99.90;;;;;;5078077;28;20571;-80
2022/07/26 01:40:50;;;;;;;8.97;6.40;;;18.10;99.90;;;;;;5079604;28;20177;-80
2022/07/26 01:43:16;;;;;;;7.00;5.63;;;18.10;99.90;;;;;;5084048;28;20181;-79
2022/07/26 01:45:42;;;;;;;9.90;6.10;;;18.00;99.90;;;;;;5091122;28;20213;-79
2022/07/26 01:48:08;;;;;;;7.37;6.07;;;18.00;99.90;;;;;;5079478;28;20683;-79
2022/07/26 01:50:35;;;;;;;9.70;6.27;;;18.00;99.90;;;;;;5075588;28;20224;-79
2022/07/26 01:53:00;;;;;;;7.07;5.87;;;18.00;99.90;;;;;;5074737;28;20204;-79
2022/07/26 01:55:26;;;;;;;9.30;6.50;;;;;;;;;;5074154;28;20206;-79
2022/07/26 01:57:53;;;;;;;8.47;6.50;;;18.00;99.90;;;;;;5073705;28;20199;-79
2022/07/26 02:00:19;;;;;;;6.73;5.93;;;18.00;99.90;;;;;;5074079;28;20191;-79
2022/07/26 02:02:44;;;;;;;9.40;6.47;;;18.00;99.90;;;;;;5075802;28;20635;-79
2022/07/26 02:05:11;;;;;;;8.10;6.37;;;18.00;99.90;;;;;;5074416;28;20228;-79
2022/07/26 02:07:42;;;;;;;12.97;5.73;;;18.00;99.90;;;;;;5075354;28;20552;-79
2022/07/26 02:10:12;;;;;;;9.43;5.67;;;18.00;99.90;;;;;;5075529;28;20196;-79
2022/07/26 02:12:38;;;;;;;7.37;5.70;;;17.90;99.90;;;;;;5075339;28;20189;-79
2022/07/26 02:15:05;;;;;;;10.73;6.10;;;18.00;99.90;;;;;;5075258;28;20200;-79
2022/07/26 02:17:31;;;;;;;7.13;5.77;;;18.00;99.90;;;;;;5075243;28;20182;-79
2022/07/26 02:19:57;;;;;;;8.53;5.77;;;17.90;99.90;;;;;;5074163;28;20639;-79
2022/07/26 02:22:23;;;;;;;8.53;5.93;;;;;;;;;;5075386;28;20192;-79
2022/07/26 02:24:49;;;;;;;8.57;5.90;;;17.90;99.90;;;;;;5075139;28;20198;-80
2022/07/26 02:27:16;;;;;;;8.40;5.63;;;;;;;;;;5075207;28;20263;-79
2022/07/26 02:29:42;;;;;;;7.90;5.57;;;17.90;99.90;;;;;;5077646;28;20189;-79
2022/07/26 02:32:07;;;;;;;7.50;5.43;;;17.90;99.90;;;;;;5077623;28;20178;-79
2022/07/26 02:34:33;;;;;;;9.50;5.87;;;17.90;99.90;;;;;;5079823;28;20170;-80
2022/07/26 02:36:59;;;;;;;6.47;5.43;;;;;;;;;;5080654;28;20512;-80
2022/07/26 02:39:28;;;;;;;7.80;5.30;;;17.90;99.90;;;;;;5079095;28;20196;-80
2022/07/26 02:41:55;;;;;;;10.17;6.00;;;17.90;99.90;;;;;;5079898;28;20206;-80
2022/07/26 02:44:22;;;;;;;7.80;5.30;;;17.90;99.90;;;;;;5081662;28;20177;-80
2022/07/26 02:46:48;;;;;;;9.40;5.00;;;17.80;99.90;;;;;;5080617;28;20654;-79
2022/07/26 02:49:14;;;;;;;6.00;5.30;;;17.80;99.90;;;;;;5080968;28;20270;-80
2022/07/26 02:51:40;;;;;;;8.13;5.27;;;;;;;;;;5081568;28;20690;-80
2022/07/26 02:54:05;;;;;;;7.03;5.20;;;17.80;99.90;;;;;;5077944;28;20268;-80
2022/07/26 02:56:31;;;;;;;7.70;5.33;;;17.80;99.90;;;;;;5077550;28;20228;-80
2022/07/26 02:58:57;;;;;;;6.73;5.20;;;17.80;99.90;;;;;;5077436;28;20518;-79
2022/07/26 03:01:23;;;;;;;8.30;5.10;;;17.80;99.90;;;;;;5077466;28;20239;-80
2022/07/26 03:03:48;;;;;;;8.30;5.30;;;17.80;99.90;;;;;;5078661;28;20177;-80
2022/07/26 03:06:14;;;;;;;8.13;6.10;;;17.80;99.90;;;;;;5077786;28;20197;-80
2022/07/26 03:08:40;;;;;;;6.53;5.30;;;17.80;99.90;;;;;;5077497;28;20205;-80
2022/07/26 03:11:05;;;;;;;8.63;6.13;;;17.80;99.90;;;;;;5079569;28;20166;-80
2022/07/26 03:13:31;;;;;;;10.57;6.07;;;17.80;99.90;;;;;;5077883;28;20184;-80
2022/07/26 03:15:57;;;;;;;18.33;6.40;;;17.80;99.90;;;;;;5078749;28;20193;-80
2022/07/26 03:18:23;;;;;;;9.80;6.17;;;17.80;99.90;;;;;;5077320;28;20235;-80
2022/07/26 03:20:49;;;;;;;7.13;6.00;;;17.70;99.90;;;;;;5078876;28;20180;-80
2022/07/26 03:23:15;;;;;;;7.37;5.97;;;17.70;99.90;;;;;;5079134;28;20634;-80
2022/07/26 03:25:41;;;;;;;10.63;6.07;;;17.70;99.90;;;;;;5077561;28;20196;-80
2022/07/26 03:28:06;;;;;;;8.43;6.30;;;17.70;99.90;;;;;;5079170;28;20201;-80
2022/07/26 03:30:32;;;;;;;6.37;5.77;;;17.70;99.90;;;;;;5077685;28;20749;-80
2022/07/26 03:32:58;;;;;;;9.10;6.40;;;17.70;99.90;;;;;;5077698;28;20177;-80
2022/07/26 03:35:24;;;;;;;11.73;6.57;;;17.70;99.90;;;;;;5078880;28;20200;-80
2022/07/26 03:37:50;;;;;;;10.60;6.50;;;17.60;99.90;;;;;;5080375;28;20187;-80
2022/07/26 03:40:17;;;;;;;10.23;6.80;;;17.60;99.90;;;;;;5080897;28;20256;-80
2022/07/26 03:42:44;;;;;;;10.73;7.23;;;17.60;99.90;;;;;;5078518;28;20189;-79
2022/07/26 03:45:10;;;;;;;8.27;6.73;;;17.70;99.90;;;;;;5079170;28;20698;-80
2022/07/26 03:47:36;;;;;;;9.43;6.53;;;17.70;99.90;;;;;;5077155;28;20210;-80
2022/07/26 03:50:03;;;;;;;9.73;7.30;;;17.70;99.90;;;;;;5078433;28;20169;-80
2022/07/26 03:52:29;;;;;;;12.67;6.97;;;17.70;99.90;;;;;;5078305;28;20242;-80
2022/07/26 03:54:54;;;;;;;12.00;6.93;;;17.70;99.90;;;;;;5079005;28;20664;-80
2022/07/26 03:57:20;;;;;;;11.47;6.70;;;17.70;99.90;;;;;;5076919;28;20178;-80
2022/07/26 03:59:46;;;;;;;9.33;6.97;;;17.60;99.90;;;;;;5078696;28;20169;-80
2022/07/26 04:02:11;;;;;;;9.90;7.40;;;17.70;99.90;;;;;;5077289;28;20207;-80
2022/07/26 04:04:37;;;;;;;12.80;7.70;;;17.70;99.90;;;;;;5076973;28;20181;-80
2022/07/26 04:07:03;;;;;;;9.77;6.83;;;17.70;99.90;;;;;;5076798;28;20180;-81
2022/07/26 04:09:29;;;;;;;10.27;6.53;;;17.70;99.90;;;;;;5077578;28;20184;-80
2022/07/26 04:11:55;;;;;;;10.30;6.73;;;17.60;99.90;;;;;;5078604;28;20166;-80
2022/07/26 04:14:21;;;;;;;9.30;6.03;;;17.60;99.90;;;;;;5077376;28;20321;-80
2022/07/26 04:16:47;;;;;;;9.80;5.87;;;17.60;99.90;;;;;;5076836;28;20202;-80
2022/07/26 04:19:12;;;;;;;9.03;5.93;;;17.50;99.90;;;;;;5077316;28;20210;-80
2022/07/26 04:21:38;;;;;;;7.30;5.20;;;17.50;99.90;;;;;;5077834;28;20224;-80
2022/07/26 04:24:04;;;;;;;7.57;4.80;;;17.50;99.90;;;;;;5078588;28;20169;-80
2022/07/26 04:26:30;;;;;;;6.23;5.13;;;;;;;;;;5085033;28;20196;-79
2022/07/26 04:28:56;;;;;;;7.20;4.93;;;17.40;99.90;;;;;;5084419;28;20217;-79
2022/07/26 04:31:22;;;;;;;8.07;4.73;;;17.30;99.90;;;;;;5077684;28;20182;-80
2022/07/26 04:33:47;;;;;;;6.67;4.63;;;17.40;99.90;;;;;;5075694;28;20181;-80
2022/07/26 04:36:13;;;;;;;6.87;4.70;;;17.40;99.90;;;;;;5075651;28;20204;-80
2022/07/26 04:38:39;;;;;;;7.10;4.83;;;17.40;99.90;;;;;;5076895;28;20198;-80
2022/07/26 04:41:05;;;;;;;7.90;4.83;;;17.40;99.90;;;;;;5075186;28;20180;-80
2022/07/26 04:43:30;;;;;;;8.13;4.87;;;17.40;99.90;;;;;;5075722;28;20184;-80
2022/07/26 04:45:56;;;;;;;7.00;4.80;;;17.30;99.90;;;;;;5075563;28;20240;-79
2022/07/26 04:48:22;;;;;;;4.43;4.03;;;17.30;99.90;;;;;;5075140;28;20304;-79
2022/07/26 04:50:48;;;;;;;5.03;4.10;;;17.40;99.90;;;;;;5075906;28;20173;-79
2022/07/26 04:53:14;;;;;;;7.60;4.73;;;17.30;99.90;;;;;;5075272;28;20174;-77
2022/07/26 04:55:40;;;;;;;9.37;5.43;;;17.40;99.90;;;;;;5073162;28;20197;-77
2022/07/26 04:58:07;;;;;;;8.60;5.63;;;17.30;99.90;;;;;;5074294;28;20197;-77
2022/07/26 05:00:32;;;;;;;8.37;4.83;;;17.40;99.90;;;;;;5074077;28;20227;-77
2022/07/26 05:03:00;;;;;;;6.60;5.20;;;17.20;99.90;;;;;;5074003;28;20185;-77
2022/07/26 05:05:29;;;;;;;7.17;4.40;;;17.20;99.90;;;;;;5072847;28;20247;-77
2022/07/26 05:07:57;;;;;;;6.00;4.63;;;17.10;99.90;;;;;;5072959;28;20201;-78
2022/07/26 05:10:29;;;;;;;7.10;4.30;;;17.10;99.90;;;;;;5073145;28;20635;-77
2022/07/26 05:12:54;;;;;;;5.93;4.00;;;17.10;99.90;;;;;;5074276;28;20222;-77
2022/07/26 05:15:21;;;;;;;7.13;4.17;;;17.00;99.90;;;;;;5072914;28;20228;-77
2022/07/26 05:17:47;;;;;;;5.30;4.40;;;17.00;99.90;;;;;;5074279;28;20639;-78
2022/07/26 05:20:14;;;;;;;5.07;4.33;;;17.00;99.90;;;;;;5074514;28;20176;-77
2022/07/26 05:22:41;;;;;;;5.83;4.80;;;17.10;99.90;;;;;;5073000;28;20276;-77
2022/07/26 05:25:08;;;;;;;5.77;4.33;;;17.10;99.90;;;;;;5074117;28;20206;-77
2022/07/26 05:27:34;;;;;;;5.77;4.70;;;17.00;99.90;;;;;;5073924;28;20233;-78
2022/07/26 05:30:00;;;;;;;5.43;4.47;;;17.00;99.90;;;;;;5074202;28;20230;-77
2022/07/26 05:32:27;;;;;;;7.40;4.47;;;17.00;99.90;;;;;;5071966;28;20185;-77
2022/07/26 05:34:52;;;;;;;7.87;4.83;;;17.00;99.90;;;;;;5071107;28;20276;-77
2022/07/26 05:37:19;;;;;;;5.23;4.00;;;17.00;99.90;;;;;;5073419;28;20204;-77
2022/07/26 05:39:44;;;;;;;6.20;4.57;;;17.10;99.90;;;;;;5072010;28;20197;-77
2022/07/26 05:42:10;;;;;;;6.43;4.73;;;17.10;99.90;;;;;;5073694;28;20184;-77
2022/07/26 05:44:36;;;;;;;6.13;4.00;;;17.00;99.90;;;;;;5073815;28;20174;-77
2022/07/26 05:47:02;;;;;;;6.93;4.80;;;17.10;99.90;;;;;;5074034;28;20298;-78
2022/07/26 05:49:27;;;;;;;8.80;5.47;;;17.00;99.90;;;;;;5072859;28;20180;-77
2022/07/26 05:51:53;;;;;;;6.77;4.53;;;17.00;99.90;;;;;;5073787;28;20509;-77
2022/07/26 05:54:20;;;;;;;9.70;5.20;;;17.10;99.90;;;;;;5073995;28;20176;-78
2022/07/26 05:56:46;;;;;;;10.87;5.00;;;17.10;99.90;;;;;;5072201;28;20192;-77
2022/07/26 05:59:12;;;;;;;5.53;4.67;;;17.10;99.90;;;;;;5074525;28;20252;-78
2022/07/26 06:01:38;;;;;;;8.80;5.13;;;17.10;99.90;;;;;;5074656;28;20651;-77
2022/07/26 06:04:04;;;;;;;7.67;4.63;;;17.10;99.90;;;;;;5077814;28;20252;-77
2022/07/26 06:06:29;;;;;;;6.30;4.90;;;17.10;99.90;;;;;;5076331;28;20198;-77
2022/07/26 06:08:55;;;;;;;7.37;4.87;;;17.10;99.90;;;;;;5078752;28;20200;-77
2022/07/26 06:11:21;;;;;;;7.13;5.47;;;17.10;99.90;;;;;;5078937;28;20183;-78
2022/07/26 06:13:47;;;;;;;7.53;5.37;;;17.10;99.90;;;;;;5078347;28;20172;-80
2022/07/26 06:16:13;;;;;;;6.67;5.20;;;17.10;99.90;;;;;;5077583;28;20566;-80
2022/07/26 06:18:39;;;;;;;7.33;5.07;;;17.10;99.90;;;;;;5079343;28;20627;-80
2022/07/26 06:21:05;;;;;;;7.90;4.80;;;17.20;99.90;;;;;;5079121;28;20188;-80
2022/07/26 06:23:30;;;;;;;8.80;6.23;;;17.20;99.90;;;;;;5078681;28;20181;-80
2022/07/26 06:25:56;;;;;;;9.13;6.37;;;17.20;99.90;;;;;;5079309;28;20547;-80
2022/07/26 06:28:22;;;;;;;8.83;6.57;;;17.30;99.90;;;;;;5079542;28;20207;-80
2022/07/26 06:30:48;;;;;;;7.50;5.40;;;17.30;99.90;;;;;;5078440;28;20196;-80
2022/07/26 06:33:14;;;;;;;12.13;6.77;;;;;;;;;;5078523;28;20173;-81
2022/07/26 06:35:41;;;;;;;7.60;5.20;;;17.40;99.90;;;;;;5079413;28;20184;-81
2022/07/26 06:38:07;;;;;;;8.40;6.17;;;17.40;99.90;;;;;;5077951;28;20191;-80
2022/07/26 06:40:33;;;;;;;14.30;5.80;;;17.30;99.90;;;;;;5079815;28;20193;-80
2022/07/26 06:43:00;;;;;;;9.50;6.43;;;17.30;99.90;;;;;;5078159;28;20177;-80
2022/07/26 06:45:27;;;;;;;8.23;3.70;;;17.10;99.90;;;;;;5079941;28;20203;-81
2022/07/26 06:47:52;;;;;;;8.27;3.70;;;17.10;99.90;;;;;;5078888;28;20302;-81
2022/07/26 06:50:18;;;;;;;4.33;3.13;;;;;;;;;;5078841;28;20173;-81
2022/07/26 06:52:44;;;;;;;4.90;3.10;;;17.00;99.90;;;;;;5078594;28;20182;-81
2022/07/26 06:55:11;;;;;;;3.67;3.00;;;16.80;99.90;;;;;;5079839;28;20220;-81
2022/07/26 06:57:37;;;;;;;4.87;2.27;;;16.80;99.90;;;;;;5078379;28;20270;-81
2022/07/26 07:00:10;;;;;;;4.57;3.00;;;16.70;99.90;;;;;;5078785;28;20637;-82
2022/07/26 07:02:35;;;;;;;3.20;2.90;;;20.40;99.90;;;;;;5078636;28;20177;-81
2022/07/26 07:05:02;;;;;;;3.40;2.30;;;;;;;;;;5078821;28;20200;-82
2022/07/26 07:07:28;;;;;;;4.10;1.90;;;16.60;99.90;;;;;;5078527;28;20258;-82
2022/07/26 07:09:54;;;;;;;2.73;1.80;;;;;;;;;;5079328;28;20644;-81
2022/07/26 07:12:19;;;;;;;4.00;2.07;;;16.60;99.90;;;;;;5079593;28;20180;-83
2022/07/26 07:14:45;;;;;;;5.07;2.30;;;16.60;99.90;;;;;;5078115;28;20275;-82
2022/07/26 07:17:11;;;;;;;5.43;1.93;;;16.60;99.90;;;;;;5078061;28;20279;-82
2022/07/26 07:19:37;;;;;;;4.43;1.73;;;16.60;99.90;;;;;;5078046;28;20673;-82
2022/07/26 07:22:04;;;;;;;5.10;1.63;;;16.60;99.90;;;;;;5078961;28;20176;-82
2022/07/26 07:24:30;;;;;;;3.37;1.70;;;;;;;;;;5080075;28;20165;-82
2022/07/26 07:26:56;;;;;;;2.77;1.90;;;16.70;99.90;;;;;;5079300;28;20172;-84
2022/07/26 07:29:21;;;;;;;5.43;1.70;;;16.80;99.90;;;;;;5079471;28;20280;-83
2022/07/26 07:31:48;;;;;;;3.93;1.90;;;16.70;99.90;;;;;;5078681;28;20174;-82
2022/07/26 07:34:19;;;;;;;3.43;2.00;;;16.70;99.90;;;;;;5079432;28;20180;-82
2022/07/26 07:36:51;;;;;;;6.60;2.00;;;16.80;99.90;;;;;;5079695;28;20222;-82
2022/07/26 07:39:17;;;;;;;3.43;2.20;;;16.80;99.90;;;;;;5081150;28;20217;-81
2022/07/26 07:41:44;;;;;;;2.73;1.70;;;16.90;99.90;;;;;;5094209;28;20549;-82
2022/07/26 07:44:09;;;;;;;5.87;2.07;;;16.90;99.90;;;;;;5094709;28;20227;-82
2022/07/26 07:46:35;;;;;;;3.20;2.00;;;16.90;99.90;;;;;;5092378;28;20224;-81
2022/07/26 07:49:01;;;;;;;2.30;1.80;;;;;;;;;;5083329;28;20197;-81
2022/07/26 07:51:27;;;;;;;2.30;1.50;;;16.90;99.90;;;;;;5078139;28;20229;-82
2022/07/26 07:53:53;;;;;;;3.07;1.80;;;16.80;99.90;;;;;;5077941;28;20261;-82
2022/07/26 07:56:19;;;;;;;5.67;2.23;;;16.70;99.90;;;;;;5078451;28;20193;-82
2022/07/26 07:58:45;;;;;;;2.60;1.73;;;16.70;99.90;;;;;;5077726;28;20169;-82
2022/07/26 08:01:11;;;;;;;3.43;1.90;;;16.80;99.90;;;;;;5076921;28;20212;-82
2022/07/26 08:03:37;;;;;;;4.17;2.10;;;;;;;;;;5076900;28;20185;-81
2022/07/26 08:06:05;;;;;;;3.10;2.07;;;16.80;99.90;;;;;;5077863;28;20264;-81
2022/07/26 08:08:31;;;;;;;5.03;2.10;;;16.80;99.90;;;;;;5078147;28;20207;-82
2022/07/26 08:10:57;;;;;;;5.63;2.00;;;16.80;99.90;;;;;;5076553;28;20173;-82
2022/07/26 08:13:23;;;;;;;2.30;2.00;;;16.80;99.90;;;;;;5076373;28;20173;-81
2022/07/26 08:15:50;;;;;;;2.70;2.20;;;16.90;99.90;;;;;;5077477;28;20188;-81
2022/07/26 08:18:16;;;;;;;7.23;2.43;;;17.00;99.90;;;;;;5078135;28;20286;-81
2022/07/26 08:20:41;;;;;;;4.77;2.20;;;17.00;99.90;;;;;;5077771;28;20630;-82
2022/07/26 08:23:07;;;;;;;4.83;2.03;;;;;;;;;;5077595;28;20631;-82
2022/07/26 08:25:33;;;;;;;2.70;2.10;;;17.10;99.90;;;;;;5077982;28;20227;-82
2022/07/26 08:27:59;;;;;;;4.43;2.30;;;17.10;99.90;;;;;;5077775;28;20201;-82
2022/07/26 08:30:25;;;;;;;2.40;2.10;;;;;;;;;;5078435;28;20239;-81
2022/07/26 08:32:50;;;;;;;3.27;2.00;;;17.40;99.90;;;;;;5078718;28;20184;-82
2022/07/26 08:35:16;;;;;;;1.93;1.83;;;17.60;99.90;;;;;;5077034;28;20193;-81
2022/07/26 08:37:42;;;;;;;2.27;1.90;;;17.70;99.90;;;;;;5076613;28;20171;-82
2022/07/26 08:40:08;;;;;;;2.83;1.80;;;17.90;99.90;;;;;;5077297;28;20223;-82
2022/07/26 08:42:33;;;;;;;2.20;1.90;;;17.90;99.90;;;;;;5077682;28;20195;-81
2022/07/26 08:44:59;;;;;;;2.23;1.70;;;18.10;99.90;;;;;;5075720;28;20201;-80
2022/07/26 08:47:25;;;;;;;3.10;1.87;;;18.20;99.90;;;;;;5075480;28;20173;-80
2022/07/26 08:49:51;;;;;;;3.70;2.00;;;18.30;99.90;;;;;;5076987;28;20662;-79
2022/07/26 08:52:17;;;;;;;3.63;1.80;;;18.50;99.90;;;;;;5077091;28;20170;-80
2022/07/26 08:54:44;;;;;;;2.30;1.50;;;18.60;99.90;;;;;;5077042;28;20175;-80
2022/07/26 08:57:10;;;;;;;3.37;2.00;;;18.60;99.90;;;;;;5075619;28;20182;-79
2022/07/26 08:59:36;;;;;;;1.70;1.50;;;18.70;99.90;;;;;;5077713;28;20173;-79
2022/07/26 09:02:05;;;;;;;1.67;1.40;;;18.90;99.90;;;;;;5078050;28;20531;-79
2022/07/26 09:04:34;;;;;;;2.30;1.53;;;19.20;99.90;;;;;;5077728;28;20179;-79
2022/07/26 09:07:15;;;;;;;2.10;1.50;;;19.30;99.90;;;;;;5076382;28;20175;-80
2022/07/26 09:09:53;;;;;;;2.77;1.73;;;19.50;99.90;;;;;;5076360;28;20612;-80
2022/07/26 09:12:23;;;;;;;2.37;1.53;;;19.50;99.90;;;;;;5076637;28;20181;-80
2022/07/26 09:14:51;;;;;;;6.30;2.00;;;19.60;99.90;;;;;;5077787;28;20197;-80
2022/07/26 09:17:19;;;;;;;2.87;2.00;;;19.70;99.90;;;;;;5078926;28;20180;-80
2022/07/26 09:20:01;;;;;;;5.87;1.90;;;19.70;99.90;;;;;;5075240;28;20641;-80
2022/07/26 09:22:26;;;;;;;3.47;2.07;;;19.70;99.90;;;;;;5076335;28;20157;-80
2022/07/26 09:24:52;;;;;;;4.80;1.83;;;19.40;99.90;;;;;;5075941;28;20641;-79
2022/07/26 09:27:18;;;;;;;3.20;2.30;;;19.30;99.90;;;;;;5075672;28;20657;-80
2022/07/26 09:29:53;;;;;;;3.60;2.13;;;19.30;99.90;;;;;;5074798;28;20176;-79
2022/07/26 09:32:24;;;;;;;2.70;2.47;;;19.30;99.90;;;;;;5075871;28;20167;-79
2022/07/26 09:35:08;;;;;;;3.13;2.50;;;19.40;99.90;;;;;;5074710;28;20192;-79
2022/07/26 09:37:42;;;;;;;4.30;2.63;;;19.40;99.90;;;;;;5075956;28;20163;-80
2022/07/26 09:40:13;;;;;;;3.17;2.67;;;19.60;99.90;;;;;;5075274;28;20250;-79
2022/07/26 09:42:54;;;;;;;3.53;2.70;;;19.60;99.90;;;;;;5075987;28;20174;-80
2022/07/26 09:45:20;;;;;;;4.07;3.10;;;19.60;99.90;;;;;;5075958;28;20193;-80
2022/07/26 09:47:46;;;;;;;3.27;2.93;;;19.60;99.90;;;;;;5076298;28;20218;-79
2022/07/26 09:50:15;;;;;;;5.00;2.70;;;19.50;99.90;;;;;;5077016;28;20175;-79
2022/07/26 09:53:02;;;;;;;6.23;2.90;;;19.50;99.90;;;;;;5075555;28;20183;-79
2022/07/26 09:55:29;;;;;;;3.93;2.63;;;19.70;99.90;;;;;;5077159;28;20241;-79
2022/07/26 09:57:56;;;;;;;3.50;2.97;;;19.70;99.90;;;;;;5076899;28;20179;-81
2022/07/26 10:00:24;;;;;;;3.33;2.90;;;19.80;99.90;;;;;;5077662;28;20171;-80
2022/07/26 10:02:51;;;;;;;3.00;2.60;;;20.10;99.90;;;;;;5079167;28;20566;-80
2022/07/26 10:05:17;;;;;;;2.47;2.27;;;20.40;99.90;;;;;;5077008;28;20740;-81
2022/07/26 10:07:43;;;;;;;3.57;2.90;;;20.40;99.90;;;;;;5076857;28;20211;-80
2022/07/26 10:10:14;;;;;;;3.53;2.70;;;20.50;99.90;;;;;;5077894;28;20165;-80
2022/07/26 10:12:44;;;;;;;2.63;2.43;;;20.40;99.90;;;;;;5076232;28;20161;-80
2022/07/26 10:15:36;;;;;;;3.43;2.80;;;20.60;99.90;;;;;;5074984;28;20671;-81
2022/07/26 10:18:03;;;;;;;3.10;2.70;;;20.60;99.90;;;;;;5076339;28;20643;-81
2022/07/26 10:20:45;;;;;;;3.97;2.63;;;21.20;99.90;;;;;;5076800;28;20707;-81
2022/07/26 10:23:34;;;;;;;3.73;2.73;;;21.70;99.90;;;;;;5075571;28;20220;-80
2022/07/26 10:26:01;;;;;;;3.13;2.47;;;22.00;99.90;;;;;;5075387;28;20559;-80
2022/07/26 10:28:29;;;;;;;3.20;2.53;;;22.10;99.90;;;;;;5075226;28;20614;-79
2022/07/26 10:31:32;;;;;;;5.13;3.23;;;21.80;99.90;;;;;;5076684;28;20177;-79
2022/07/26 10:33:59;;;;;;;3.23;2.73;;;21.40;99.90;;;;;;5076221;28;20172;-80
2022/07/26 10:36:37;;;;;;;3.27;2.80;;;21.10;99.90;;;;;;5075053;28;20193;-80
2022/07/26 10:39:15;;;;;;;3.23;2.93;;;21.10;99.90;;;;;;5075668;28;20607;-80
2022/07/26 10:41:44;;;;;;;3.20;2.90;;;21.10;99.90;;;;;;5077633;28;20184;-81
2022/07/26 10:44:16;;;;;;;3.23;2.93;;;21.10;99.90;;;;;;5076178;28;20661;-81
2022/07/26 10:47:01;;;;;;;5.10;3.17;;;21.30;99.90;;;;;;5080909;28;20204;-80
2022/07/26 10:49:44;;;;;;;4.33;2.87;;;21.50;99.90;;;;;;5083506;28;20207;-80
2022/07/26 10:52:22;;;;;;;4.83;3.10;;;21.80;99.90;;;;;;5084464;28;20160;-82
2022/07/26 10:54:59;;;;;;;3.40;3.10;;;22.00;99.90;;;;;;5084476;28;20189;-81
2022/07/26 10:57:38;;;;;;;5.73;3.80;;;22.10;99.90;;;;;;5079188;28;20203;-81
2022/07/26 11:00:24;;;;;;;7.80;3.50;;;22.50;99.90;;;;;;5081447;28;20162;-81
2022/07/26 11:02:58;;;;;;;5.33;3.10;;;22.40;99.90;;;;;;5078980;28;20252;-81
2022/07/26 11:05:30;;;;;;;4.57;3.00;;;22.20;99.90;;;;;;5079475;28;20189;-80
2022/07/26 11:08:00;;;;;;;4.47;3.53;;;22.00;99.90;;;;;;5079607;28;20227;-81
2022/07/26 11:10:32;;;;;;;3.63;3.00;;;21.90;99.90;;;;;;5081662;28;20154;-81
2022/07/26 11:13:19;;;;;;;2.83;2.63;;;21.90;99.90;;;;;;5079100;28;20219;-80
2022/07/26 11:15:53;;;;;;;3.43;2.90;;;21.80;99.90;;;;;;5080591;28;20196;-81
2022/07/26 11:18:27;;;;;;;5.63;2.90;;;21.70;99.90;;;;;;5080824;28;20157;-80
2022/07/26 11:20:57;;;;;;;3.50;3.00;;;21.60;99.90;;;;;;5079658;28;20180;-81
2022/07/26 11:23:33;;;;;;;5.40;3.03;;;21.80;99.90;;;;;;5079465;28;20169;-80
2022/07/26 11:26:19;;;;;;;3.53;3.00;;;21.80;99.90;;;;;;5080238;28;20203;-81
2022/07/26 11:28:52;;;;;;;4.60;2.80;;;21.60;99.90;;;;;;5079714;28;20197;-81
2022/07/26 11:31:20;;;;;;;3.63;2.97;;;21.60;99.90;;;;;;5079713;28;20696;-82
2022/07/26 11:33:49;;;;;;;4.83;3.37;;;21.50;99.90;;;;;;5079125;28;20232;-82
2022/07/26 11:36:30;;;;;;;3.60;3.30;;;21.40;99.90;;;;;;5079184;28;20580;-82
2022/07/26 11:38:56;;;;;;;7.20;3.27;;;21.40;99.90;;;;;;5079851;28;20192;-82
2022/07/26 11:41:25;;;;;;;5.77;3.33;;;21.20;99.90;;;;;;5080000;28;20669;-82
2022/07/26 11:43:52;;;;;;;3.83;2.90;;;21.10;99.90;;;;;;5080970;28;20188;-81
2022/07/26 11:46:18;;;;;;;3.47;3.13;;;21.00;99.90;;;;;;5079155;28;20250;-83
2022/07/26 11:48:48;;;;;;;3.63;3.00;;;21.00;99.90;;;;;;5078985;28;20249;-81
2022/07/26 11:51:19;;;;;;;6.20;2.97;;;21.00;99.90;;;;;;5080182;28;20685;-81
2022/07/26 11:53:46;;;;;;;3.57;2.80;;;20.90;99.90;;;;;;5079045;28;20169;-82
2022/07/26 11:56:16;;;;;;;3.70;3.10;;;20.80;99.90;;;;;;5078856;28;20207;-82
2022/07/26 11:58:45;;;;;;;3.13;2.70;;;20.70;99.90;;;;;;5077852;28;20195;-82
2022/07/26 12:01:14;;;;;;;2.97;2.67;;;20.70;99.90;;;;;;5079229;28;20212;-80
2022/07/26 12:03:42;;;;;;;6.20;3.13;;;20.60;99.90;;;;;;5079266;28;20264;-81
2022/07/26 12:06:18;;;;;;;4.63;3.37;;;20.60;99.90;;;;;;5079083;28;20270;-80
2022/07/26 12:08:57;;;;;;;4.83;3.10;;;20.40;99.90;;;;;;5077461;28;20290;-81
2022/07/26 12:11:36;;;;;;;3.53;2.80;;;20.40;99.90;;;;;;5079403;28;20224;-81
2022/07/26 12:14:02;;;;;;;3.77;3.23;;;20.30;99.90;;;;;;5077470;28;20684;-80
2022/07/26 12:16:40;;;;;;;3.83;3.20;;;20.20;99.90;;;;;;5078005;28;20198;-81
2022/07/26 12:19:28;;;;;;;5.37;3.27;;;20.20;99.90;;;;;;5077368;28;20162;-80
2022/07/26 12:21:54;;;;;;;4.10;3.50;;;20.10;99.90;;;;;;5079595;28;20260;-81
2022/07/26 12:24:43;;;;;;;5.80;4.03;;;20.10;99.90;;;;;;5077556;28;20297;-81
2022/07/26 12:27:10;;;;;;;4.80;4.23;;;20.00;99.90;;;;;;5081082;28;20182;-80
2022/07/26 12:29:37;;;;;;;9.20;4.77;;;20.00;99.90;;;;;;5082982;28;20219;-81
2022/07/26 12:32:05;;;;;;;5.27;4.10;;;19.90;99.90;;;;;;5081342;28;20174;-81
2022/07/26 12:34:32;;;;;;;6.83;4.40;;;19.70;99.90;;;;;;5078831;28;20176;-80
2022/07/26 12:37:13;;;;;;;4.73;4.30;;;19.70;99.90;;;;;;5079605;28;20180;-80
2022/07/26 12:39:40;;;;;;;4.47;4.07;;;19.60;99.90;;;;;;5078827;28;20329;-80
2022/07/26 12:42:29;;;;;;;8.10;4.10;;;19.60;99.90;;;;;;5079897;28;20174;-80
2022/07/26 12:44:55;;;;;;;4.33;3.77;;;19.50;99.90;;;;;;5079894;28;20205;-81
2022/07/26 12:47:21;;;;;;;6.07;3.70;;;19.50;99.90;;;;;;5078726;28;20183;-80
2022/07/26 12:49:48;;;;;;;4.47;3.80;;;19.50;99.90;;;;;;5077673;28;20175;-80
2022/07/26 12:52:15;;;;;;;4.30;3.80;;;19.50;99.90;;;;;;5079471;28;20163;-81
2022/07/26 12:54:43;;;;;;;3.87;3.10;;;19.50;99.90;;;;;;5078362;28;20178;-80
2022/07/26 12:57:09;;;;;;;3.73;3.40;;;19.50;99.90;;;;;;5079508;28;20572;-80